sensor_id;sensor_type;location;lat;lon;timestamp;temperature;humidity
10873;DHT22;34586;53.616;10.032;2023-02-03T00:01:28;6.10;99.90
10873;DHT22;34586;53.616;10.032;2023-02-03T00:03:54;6.00;99.90
10873;DHT22;34586;53.616;10.032;2023-02-03T00:06:21;6.30;99.90
10873;DHT22;34586;53.616;10.032;2023-02-03T00:08:51;6.10;99.90
10873;DHT22;34586;53.616;10.032;2023-02-03T00:11:18;6.20;99.90
10873;DHT22;34586;53.616;10.032;2023-02-03T00:13:44;6.20;99.90
10873;DHT22;34586;53.616;10.032;2023-02-03T00:16:11;6.30;99.90
10873;DHT22;34586;53.616;10.032;2023-02-03T00:18:38;6.40;99.90
10873;DHT22;34586;53.616;10.032;2023-02-03T00:21:05;6.40;99.90
10873;DHT22;34586;53.616;10.032;2023-02-03T00:23:30;6.40;99.90
10873;DHT22;34586;53.616;10.032;2023-02-03T00:26:08;6.50;99.90
10873;DHT22;34586;53.616;10.032;2023-02-03T00:28:33;6.60;99.90
10873;DHT22;34586;53.616;10.032;2023-02-03T00:30:59;6.60;99.90
10873;DHT22;34586;53.616;10.032;2023-02-03T00:33:25;6.60;99.90
10873;DHT22;34586;53.616;10.032;2023-02-03T00:35:51;6.70;99.90
10873;DHT22;34586;53.616;10.032;2023-02-03T00:38:16;6.70;99.90
10873;DHT22;34586;53.616;10.032;2023-02-03T00:40:42;6.70;99.90
10873;DHT22;34586;53.616;10.032;2023-02-03T00:43:07;6.80;99.90
10873;DHT22;34586;53.616;10.032;2023-02-03T00:45:33;6.80;99.90
10873;DHT22;34586;53.616;10.032;2023-02-03T00:47:58;6.90;99.90
10873;DHT22;34586;53.616;10.032;2023-02-03T00:50:24;7.10;99.90
10873;DHT22;34586;53.616;10.032;2023-02-03T00:52:51;7.00;99.90
10873;DHT22;34586;53.616;10.032;2023-02-03T00:55:17;7.00;99.90
10873;DHT22;34586;53.616;10.032;2023-02-03T00:57:43;7.10;99.90
10873;DHT22;34586;53.616;10.032;2023-02-03T01:00:10;7.20;99.90
10873;DHT22;34586;53.616;10.032;2023-02-03T01:02:36;7.30;99.90
10873;DHT22;34586;53.616;10.032;2023-02-03T01:05:02;7.30;99.90
10873;DHT22;34586;53.616;10.032;2023-02-03T01:07:32;7.40;99.90
10873;DHT22;34586;53.616;10.032;2023-02-03T01:09:57;7.40;99.90
10873;DHT22;34586;53.616;10.032;2023-02-03T01:12:23;7.50;99.90
10873;DHT22;34586;53.616;10.032;2023-02-03T01:14:48;8.40;99.90
10873;DHT22;34586;53.616;10.032;2023-02-03T01:17:15;7.80;99.90
10873;DHT22;34586;53.616;10.032;2023-02-03T01:19:41;7.60;99.90
10873;DHT22;34586;53.616;10.032;2023-02-03T01:22:06;7.60;99.90
10873;DHT22;34586;53.616;10.032;2023-02-03T01:24:32;7.70;99.90
10873;DHT22;34586;53.616;10.032;2023-02-03T01:26:57;7.80;99.90
10873;DHT22;34586;53.616;10.032;2023-02-03T01:29:24;8.00;99.90
10873;DHT22;34586;53.616;10.032;2023-02-03T01:31:50;7.80;99.90
10873;DHT22;34586;53.616;10.032;2023-02-03T01:34:16;7.80;99.90
10873;DHT22;34586;53.616;10.032;2023-02-03T01:36:43;7.80;99.90
10873;DHT22;34586;53.616;10.032;2023-02-03T01:39:11;7.90;99.90
10873;DHT22;34586;53.616;10.032;2023-02-03T01:41:37;7.90;99.90
10873;DHT22;34586;53.616;10.032;2023-02-03T01:47:21;7.80;99.90
10873;DHT22;34586;53.616;10.032;2023-02-03T01:50:12;7.80;99.90
10873;DHT22;34586;53.616;10.032;2023-02-03T01:52:45;7.90;99.90
10873;DHT22;34586;53.616;10.032;2023-02-03T01:55:15;7.90;99.90
10873;DHT22;34586;53.616;10.032;2023-02-03T01:57:55;7.90;99.90
10873;DHT22;34586;53.616;10.032;2023-02-03T02:00:21;7.90;99.90
10873;DHT22;34586;53.616;10.032;2023-02-03T02:02:48;7.90;99.90
10873;DHT22;34586;53.616;10.032;2023-02-03T02:05:26;7.90;99.90
10873;DHT22;34586;53.616;10.032;2023-02-03T02:07:54;7.90;99.90
10873;DHT22;34586;53.616;10.032;2023-02-03T02:10:20;8.00;99.90
10873;DHT22;34586;53.616;10.032;2023-02-03T02:12:46;7.80;99.90
10873;DHT22;34586;53.616;10.032;2023-02-03T02:15:12;8.70;99.90
10873;DHT22;34586;53.616;10.032;2023-02-03T02:23:30;7.90;99.90
10873;DHT22;34586;53.616;10.032;2023-02-03T02:26:23;8.00;99.90
10873;DHT22;34586;53.616;10.032;2023-02-03T02:35:06;7.80;99.90
10873;DHT22;34586;53.616;10.032;2023-02-03T02:40:55;7.90;99.90
10873;DHT22;34586;53.616;10.032;2023-02-03T02:46:11;7.80;99.90
10873;DHT22;34586;53.616;10.032;2023-02-03T02:48:52;7.90;99.90
10873;DHT22;34586;53.616;10.032;2023-02-03T02:51:20;7.90;99.90
10873;DHT22;34586;53.616;10.032;2023-02-03T02:53:57;8.00;99.90
10873;DHT22;34586;53.616;10.032;2023-02-03T02:56:25;7.80;99.90
10873;DHT22;34586;53.616;10.032;2023-02-03T02:58:52;7.90;99.90
10873;DHT22;34586;53.616;10.032;2023-02-03T03:01:19;7.90;99.90
10873;DHT22;34586;53.616;10.032;2023-02-03T03:03:46;7.90;99.90
10873;DHT22;34586;53.616;10.032;2023-02-03T03:06:20;8.40;99.90
10873;DHT22;34586;53.616;10.032;2023-02-03T03:08:55;7.90;99.90
10873;DHT22;34586;53.616;10.032;2023-02-03T03:11:28;7.90;99.90
10873;DHT22;34586;53.616;10.032;2023-02-03T03:13:56;7.90;99.90
10873;DHT22;34586;53.616;10.032;2023-02-03T03:16:24;8.10;99.90
10873;DHT22;34586;53.616;10.032;2023-02-03T03:18:56;7.90;99.90
10873;DHT22;34586;53.616;10.032;2023-02-03T03:21:29;7.90;99.90
10873;DHT22;34586;53.616;10.032;2023-02-03T03:24:03;8.00;99.90
10873;DHT22;34586;53.616;10.032;2023-02-03T03:26:50;8.00;99.90
10873;DHT22;34586;53.616;10.032;2023-02-03T03:29:20;8.00;99.90
10873;DHT22;34586;53.616;10.032;2023-02-03T03:31:47;8.20;99.90
10873;DHT22;34586;53.616;10.032;2023-02-03T03:34:13;8.70;99.90
10873;DHT22;34586;53.616;10.032;2023-02-03T03:45:27;8.10;99.90
10873;DHT22;34586;53.616;10.032;2023-02-03T03:48:13;8.20;99.90
10873;DHT22;34586;53.616;10.032;2023-02-03T03:50:48;8.10;99.90
10873;DHT22;34586;53.616;10.032;2023-02-03T03:53:22;8.10;99.90
10873;DHT22;34586;53.616;10.032;2023-02-03T03:55:50;8.20;99.90
10873;DHT22;34586;53.616;10.032;2023-02-03T03:58:35;8.00;99.90
10873;DHT22;34586;53.616;10.032;2023-02-03T04:01:05;8.00;99.90
10873;DHT22;34586;53.616;10.032;2023-02-03T04:03:38;8.10;99.90
10873;DHT22;34586;53.616;10.032;2023-02-03T04:06:07;8.00;99.90
10873;DHT22;34586;53.616;10.032;2023-02-03T04:08:34;8.00;99.90
10873;DHT22;34586;53.616;10.032;2023-02-03T04:10:59;8.00;99.90
10873;DHT22;34586;53.616;10.032;2023-02-03T04:13:25;8.00;99.90
10873;DHT22;34586;53.616;10.032;2023-02-03T04:15:51;8.00;99.90
10873;DHT22;34586;53.616;10.032;2023-02-03T04:18:16;8.50;99.90
10873;DHT22;34586;53.616;10.032;2023-02-03T04:20:42;7.80;99.90
10873;DHT22;34586;53.616;10.032;2023-02-03T04:23:08;7.80;99.90
10873;DHT22;34586;53.616;10.032;2023-02-03T04:25:34;7.80;99.90
10873;DHT22;34586;53.616;10.032;2023-02-03T04:27:59;7.80;99.90
10873;DHT22;34586;53.616;10.032;2023-02-03T04:30:29;8.30;99.90
10873;DHT22;34586;53.616;10.032;2023-02-03T04:32:55;7.70;99.90
10873;DHT22;34586;53.616;10.032;2023-02-03T04:35:20;7.70;99.90
10873;DHT22;34586;53.616;10.032;2023-02-03T04:37:46;7.60;99.90
10873;DHT22;34586;53.616;10.032;2023-02-03T04:40:12;7.70;99.90
10873;DHT22;34586;53.616;10.032;2023-02-03T04:42:39;7.80;99.90
10873;DHT22;34586;53.616;10.032;2023-02-03T04:45:07;7.80;99.90
10873;DHT22;34586;53.616;10.032;2023-02-03T04:47:36;7.80;99.90
10873;DHT22;34586;53.616;10.032;2023-02-03T04:50:02;7.80;99.90
10873;DHT22;34586;53.616;10.032;2023-02-03T04:52:32;7.80;99.90
10873;DHT22;34586;53.616;10.032;2023-02-03T04:54:57;8.00;99.90
10873;DHT22;34586;53.616;10.032;2023-02-03T04:57:23;7.80;99.90
10873;DHT22;34586;53.616;10.032;2023-02-03T04:59:49;7.80;99.90
10873;DHT22;34586;53.616;10.032;2023-02-03T05:02:14;7.80;99.90
10873;DHT22;34586;53.616;10.032;2023-02-03T05:04:43;7.80;99.90
10873;DHT22;34586;53.616;10.032;2023-02-03T05:07:09;7.90;99.90
10873;DHT22;34586;53.616;10.032;2023-02-03T05:09:35;7.80;99.90
10873;DHT22;34586;53.616;10.032;2023-02-03T05:12:00;7.80;99.90
10873;DHT22;34586;53.616;10.032;2023-02-03T05:14:26;7.80;99.90
10873;DHT22;34586;53.616;10.032;2023-02-03T05:16:53;7.80;99.90
10873;DHT22;34586;53.616;10.032;2023-02-03T05:19:19;7.80;99.90
10873;DHT22;34586;53.616;10.032;2023-02-03T05:21:44;7.70;99.90
10873;DHT22;34586;53.616;10.032;2023-02-03T05:24:10;7.80;99.90
10873;DHT22;34586;53.616;10.032;2023-02-03T05:26:37;7.80;99.90
10873;DHT22;34586;53.616;10.032;2023-02-03T05:29:03;8.10;99.90
10873;DHT22;34586;53.616;10.032;2023-02-03T05:31:28;7.80;99.90
10873;DHT22;34586;53.616;10.032;2023-02-03T05:33:54;7.80;99.90
10873;DHT22;34586;53.616;10.032;2023-02-03T05:36:20;7.80;99.90
10873;DHT22;34586;53.616;10.032;2023-02-03T05:38:48;7.80;99.90
10873;DHT22;34586;53.616;10.032;2023-02-03T05:41:13;8.10;99.90
10873;DHT22;34586;53.616;10.032;2023-02-03T05:43:57;8.50;99.90
10873;DHT22;34586;53.616;10.032;2023-02-03T05:46:25;7.80;99.90
10873;DHT22;34586;53.616;10.032;2023-02-03T05:48:50;7.80;99.90
10873;DHT22;34586;53.616;10.032;2023-02-03T05:51:17;7.90;99.90
10873;DHT22;34586;53.616;10.032;2023-02-03T05:53:43;7.80;99.90
10873;DHT22;34586;53.616;10.032;2023-02-03T05:56:09;7.80;99.90
10873;DHT22;34586;53.616;10.032;2023-02-03T05:58:34;7.80;99.90
10873;DHT22;34586;53.616;10.032;2023-02-03T06:01:00;7.80;99.90
10873;DHT22;34586;53.616;10.032;2023-02-03T06:03:25;7.80;99.90
10873;DHT22;34586;53.616;10.032;2023-02-03T06:05:51;8.50;99.90
10873;DHT22;34586;53.616;10.032;2023-02-03T06:08:17;7.60;99.90
10873;DHT22;34586;53.616;10.032;2023-02-03T06:10:43;8.60;99.90
10873;DHT22;34586;53.616;10.032;2023-02-03T06:13:13;7.70;99.90
10873;DHT22;34586;53.616;10.032;2023-02-03T06:15:40;7.70;99.90
10873;DHT22;34586;53.616;10.032;2023-02-03T06:18:07;7.90;99.90
10873;DHT22;34586;53.616;10.032;2023-02-03T06:20:33;7.80;99.90
10873;DHT22;34586;53.616;10.032;2023-02-03T06:22:59;7.80;99.90
10873;DHT22;34586;53.616;10.032;2023-02-03T06:25:25;7.80;99.90
10873;DHT22;34586;53.616;10.032;2023-02-03T06:27:51;8.30;99.90
10873;DHT22;34586;53.616;10.032;2023-02-03T06:30:17;7.80;99.90
10873;DHT22;34586;53.616;10.032;2023-02-03T06:32:43;7.80;99.90
10873;DHT22;34586;53.616;10.032;2023-02-03T06:35:08;7.80;99.90
10873;DHT22;34586;53.616;10.032;2023-02-03T06:37:34;7.80;99.90
10873;DHT22;34586;53.616;10.032;2023-02-03T06:40:01;7.80;99.90
10873;DHT22;34586;53.616;10.032;2023-02-03T06:42:27;7.90;99.90
10873;DHT22;34586;53.616;10.032;2023-02-03T06:44:53;7.80;99.90
10873;DHT22;34586;53.616;10.032;2023-02-03T06:47:19;7.70;99.90
10873;DHT22;34586;53.616;10.032;2023-02-03T06:49:45;7.80;99.90
10873;DHT22;34586;53.616;10.032;2023-02-03T06:52:10;7.80;99.90
10873;DHT22;34586;53.616;10.032;2023-02-03T06:54:37;7.90;99.90
10873;DHT22;34586;53.616;10.032;2023-02-03T06:57:03;7.90;99.90
10873;DHT22;34586;53.616;10.032;2023-02-03T06:59:28;7.90;99.90
10873;DHT22;34586;53.616;10.032;2023-02-03T07:01:55;7.90;99.90
10873;DHT22;34586;53.616;10.032;2023-02-03T07:04:21;7.90;99.90
10873;DHT22;34586;53.616;10.032;2023-02-03T07:06:47;7.90;99.90
10873;DHT22;34586;53.616;10.032;2023-02-03T07:09:13;8.20;99.90
10873;DHT22;34586;53.616;10.032;2023-02-03T07:11:40;8.00;99.90
10873;DHT22;34586;53.616;10.032;2023-02-03T07:14:06;8.00;99.90
10873;DHT22;34586;53.616;10.032;2023-02-03T07:16:32;8.00;99.90
10873;DHT22;34586;53.616;10.032;2023-02-03T07:18:59;8.10;99.90
10873;DHT22;34586;53.616;10.032;2023-02-03T07:21:29;8.10;99.90
10873;DHT22;34586;53.616;10.032;2023-02-03T07:23:55;8.10;99.90
10873;DHT22;34586;53.616;10.032;2023-02-03T07:26:20;8.10;99.90
10873;DHT22;34586;53.616;10.032;2023-02-03T07:28:48;8.10;99.90
10873;DHT22;34586;53.616;10.032;2023-02-03T07:31:18;8.10;99.90
10873;DHT22;34586;53.616;10.032;2023-02-03T07:33:44;8.10;99.90
10873;DHT22;34586;53.616;10.032;2023-02-03T07:36:10;8.10;99.90
10873;DHT22;34586;53.616;10.032;2023-02-03T07:38:36;8.10;99.90
10873;DHT22;34586;53.616;10.032;2023-02-03T07:41:04;8.10;99.90
10873;DHT22;34586;53.616;10.032;2023-02-03T07:43:30;8.20;99.90
10873;DHT22;34586;53.616;10.032;2023-02-03T07:45:56;8.00;99.90
10873;DHT22;34586;53.616;10.032;2023-02-03T07:48:21;8.20;99.90
10873;DHT22;34586;53.616;10.032;2023-02-03T07:50:47;8.20;99.90
10873;DHT22;34586;53.616;10.032;2023-02-03T07:53:13;8.20;99.90
10873;DHT22;34586;53.616;10.032;2023-02-03T07:55:39;8.20;99.90
10873;DHT22;34586;53.616;10.032;2023-02-03T07:58:05;8.10;99.90
10873;DHT22;34586;53.616;10.032;2023-02-03T08:00:31;8.20;99.90
10873;DHT22;34586;53.616;10.032;2023-02-03T08:02:57;8.10;99.90
10873;DHT22;34586;53.616;10.032;2023-02-03T08:05:23;8.10;99.90
10873;DHT22;34586;53.616;10.032;2023-02-03T08:07:48;8.10;99.90
10873;DHT22;34586;53.616;10.032;2023-02-03T08:10:15;8.10;99.90
10873;DHT22;34586;53.616;10.032;2023-02-03T08:12:42;8.10;99.90
10873;DHT22;34586;53.616;10.032;2023-02-03T08:15:09;8.10;99.90
10873;DHT22;34586;53.616;10.032;2023-02-03T08:17:35;8.00;99.90
10873;DHT22;34586;53.616;10.032;2023-02-03T08:20:01;8.00;99.90
10873;DHT22;34586;53.616;10.032;2023-02-03T08:22:27;8.00;99.90
10873;DHT22;34586;53.616;10.032;2023-02-03T08:24:53;8.10;99.90
10873;DHT22;34586;53.616;10.032;2023-02-03T08:27:20;7.60;99.90
10873;DHT22;34586;53.616;10.032;2023-02-03T08:29:48;7.50;99.90
10873;DHT22;34586;53.616;10.032;2023-02-03T08:32:16;7.50;99.90
10873;DHT22;34586;53.616;10.032;2023-02-03T08:34:42;7.60;99.90
10873;DHT22;34586;53.616;10.032;2023-02-03T08:37:09;7.50;99.90
10873;DHT22;34586;53.616;10.032;2023-02-03T08:39:36;7.50;99.90
10873;DHT22;34586;53.616;10.032;2023-02-03T08:42:03;7.50;99.90
10873;DHT22;34586;53.616;10.032;2023-02-03T08:44:30;7.50;99.90
10873;DHT22;34586;53.616;10.032;2023-02-03T08:46:57;8.20;99.90
10873;DHT22;34586;53.616;10.032;2023-02-03T08:49:25;8.10;99.90
10873;DHT22;34586;53.616;10.032;2023-02-03T08:51:50;7.50;99.90
10873;DHT22;34586;53.616;10.032;2023-02-03T08:54:17;7.50;99.90
10873;DHT22;34586;53.616;10.032;2023-02-03T08:56:43;7.50;99.90
10873;DHT22;34586;53.616;10.032;2023-02-03T08:59:11;7.60;99.90
10873;DHT22;34586;53.616;10.032;2023-02-03T09:01:37;7.50;99.90
10873;DHT22;34586;53.616;10.032;2023-02-03T09:04:08;7.50;99.90
10873;DHT22;34586;53.616;10.032;2023-02-03T09:06:35;7.50;99.90
10873;DHT22;34586;53.616;10.032;2023-02-03T09:09:01;7.60;99.90
10873;DHT22;34586;53.616;10.032;2023-02-03T09:11:26;7.80;99.90
10873;DHT22;34586;53.616;10.032;2023-02-03T09:13:52;7.60;99.90
10873;DHT22;34586;53.616;10.032;2023-02-03T09:16:18;7.80;99.90
10873;DHT22;34586;53.616;10.032;2023-02-03T09:18:47;7.60;99.90
10873;DHT22;34586;53.616;10.032;2023-02-03T09:21:13;7.80;99.90
10873;DHT22;34586;53.616;10.032;2023-02-03T09:23:43;7.70;99.90
10873;DHT22;34586;53.616;10.032;2023-02-03T09:26:13;7.80;99.90
10873;DHT22;34586;53.616;10.032;2023-02-03T09:28:40;7.80;99.90
10873;DHT22;34586;53.616;10.032;2023-02-03T09:31:08;7.90;99.90
10873;DHT22;34586;53.616;10.032;2023-02-03T09:33:40;7.90;99.90
10873;DHT22;34586;53.616;10.032;2023-02-03T09:36:06;7.90;99.90
10873;DHT22;34586;53.616;10.032;2023-02-03T09:38:33;7.90;99.90
10873;DHT22;34586;53.616;10.032;2023-02-03T09:46:31;8.00;97.60
10873;DHT22;34586;53.616;10.032;2023-02-03T09:49:10;8.00;93.20
10873;DHT22;34586;53.616;10.032;2023-02-03T09:54:15;8.00;93.50
10873;DHT22;34586;53.616;10.032;2023-02-03T09:56:43;8.10;57.40
10873;DHT22;34586;53.616;10.032;2023-02-03T09:59:15;8.10;44.90
10873;DHT22;34586;53.616;10.032;2023-02-03T10:01:48;8.10;1.00
10873;DHT22;34586;53.616;10.032;2023-02-03T10:07:16;8.10;1.00
10873;DHT22;34586;53.616;10.032;2023-02-03T10:17:47;8.20;2.10
10873;DHT22;34586;53.616;10.032;2023-02-03T10:20:25;8.20;62.40
10873;DHT22;34586;53.616;10.032;2023-02-03T10:23:01;8.20;42.60
10873;DHT22;34586;53.616;10.032;2023-02-03T10:25:39;8.20;79.80
10873;DHT22;34586;53.616;10.032;2023-02-03T10:28:16;8.20;46.40
10873;DHT22;34586;53.616;10.032;2023-02-03T10:30:47;8.30;91.60
10873;DHT22;34586;53.616;10.032;2023-02-03T10:33:16;8.30;35.30
10873;DHT22;34586;53.616;10.032;2023-02-03T10:35:52;8.40;60.60
10873;DHT22;34586;53.616;10.032;2023-02-03T10:41:06;8.30;10.90
10873;DHT22;34586;53.616;10.032;2023-02-03T10:43:32;8.30;1.00
10873;DHT22;34586;53.616;10.032;2023-02-03T10:46:14;8.30;1.00
10873;DHT22;34586;53.616;10.032;2023-02-03T10:48:41;8.30;1.00
10873;DHT22;34586;53.616;10.032;2023-02-03T10:51:27;8.30;1.00
10873;DHT22;34586;53.616;10.032;2023-02-03T10:53:58;8.20;1.00
10873;DHT22;34586;53.616;10.032;2023-02-03T10:56:35;8.20;1.00
10873;DHT22;34586;53.616;10.032;2023-02-03T10:59:02;8.30;1.00
10873;DHT22;34586;53.616;10.032;2023-02-03T11:01:44;8.40;1.00
10873;DHT22;34586;53.616;10.032;2023-02-03T11:04:25;8.40;1.00
10873;DHT22;34586;53.616;10.032;2023-02-03T11:06:56;8.40;1.00
10873;DHT22;34586;53.616;10.032;2023-02-03T11:09:36;8.50;1.00
10873;DHT22;34586;53.616;10.032;2023-02-03T11:12:14;8.40;1.00
10873;DHT22;34586;53.616;10.032;2023-02-03T11:14:43;8.50;1.00
10873;DHT22;34586;53.616;10.032;2023-02-03T11:19:43;8.60;1.00
10873;DHT22;34586;53.616;10.032;2023-02-03T11:22:09;8.60;1.00
10873;DHT22;34586;53.616;10.032;2023-02-03T11:24:40;8.70;1.00
10873;DHT22;34586;53.616;10.032;2023-02-03T11:27:15;8.70;1.00
10873;DHT22;34586;53.616;10.032;2023-02-03T11:29:50;8.80;99.90
10873;DHT22;34586;53.616;10.032;2023-02-03T11:32:18;8.80;99.90
10873;DHT22;34586;53.616;10.032;2023-02-03T11:34:59;8.80;1.00
10873;DHT22;34586;53.616;10.032;2023-02-03T11:37:41;8.80;99.90
10873;DHT22;34586;53.616;10.032;2023-02-03T11:42:39;8.70;99.90
10873;DHT22;34586;53.616;10.032;2023-02-03T11:50:54;8.70;1.00
10873;DHT22;34586;53.616;10.032;2023-02-03T11:56:46;8.70;99.90
10873;DHT22;34586;53.616;10.032;2023-02-03T12:10:27;8.70;99.90
10873;DHT22;34586;53.616;10.032;2023-02-03T12:13:04;8.80;99.90
10873;DHT22;34586;53.616;10.032;2023-02-03T12:16:03;8.70;99.90
10873;DHT22;34586;53.616;10.032;2023-02-03T12:18:45;8.80;1.00
10873;DHT22;34586;53.616;10.032;2023-02-03T12:21:45;8.90;1.00
10873;DHT22;34586;53.616;10.032;2023-02-03T12:24:21;8.90;99.90
10873;DHT22;34586;53.616;10.032;2023-02-03T12:27:05;8.90;1.00
10873;DHT22;34586;53.616;10.032;2023-02-03T12:30:02;8.90;99.90
10873;DHT22;34586;53.616;10.032;2023-02-03T12:35:25;8.70;99.90
10873;DHT22;34586;53.616;10.032;2023-02-03T12:41:02;8.60;1.00
10873;DHT22;34586;53.616;10.032;2023-02-03T12:43:43;8.60;1.00
10873;DHT22;34586;53.616;10.032;2023-02-03T12:51:46;8.50;1.00
10873;DHT22;34586;53.616;10.032;2023-02-03T12:56:41;8.50;1.00
10873;DHT22;34586;53.616;10.032;2023-02-03T12:59:22;8.50;1.00
10873;DHT22;34586;53.616;10.032;2023-02-03T13:01:55;8.40;99.90
10873;DHT22;34586;53.616;10.032;2023-02-03T13:04:46;8.40;1.00
10873;DHT22;34586;53.616;10.032;2023-02-03T13:07:39;8.40;1.00
10873;DHT22;34586;53.616;10.032;2023-02-03T13:10:30;8.40;1.00
10873;DHT22;34586;53.616;10.032;2023-02-03T13:12:58;8.40;99.90
10873;DHT22;34586;53.616;10.032;2023-02-03T13:15:51;8.40;1.00
10873;DHT22;34586;53.616;10.032;2023-02-03T13:18:28;8.40;99.90
10873;DHT22;34586;53.616;10.032;2023-02-03T13:20:55;8.40;13.00
10873;DHT22;34586;53.616;10.032;2023-02-03T13:23:22;8.40;1.00
10873;DHT22;34586;53.616;10.032;2023-02-03T13:26:20;8.30;99.90
10873;DHT22;34586;53.616;10.032;2023-02-03T13:31:20;8.40;99.90
10873;DHT22;34586;53.616;10.032;2023-02-03T13:34:23;8.30;1.00
10873;DHT22;34586;53.616;10.032;2023-02-03T13:40:31;8.40;99.90
10873;DHT22;34586;53.616;10.032;2023-02-03T13:43:05;8.40;99.90
10873;DHT22;34586;53.616;10.032;2023-02-03T13:45:39;8.30;99.90
10873;DHT22;34586;53.616;10.032;2023-02-03T13:48:24;8.30;1.00
10873;DHT22;34586;53.616;10.032;2023-02-03T13:51:12;8.30;99.90
10873;DHT22;34586;53.616;10.032;2023-02-03T13:53:41;8.30;99.90
10873;DHT22;34586;53.616;10.032;2023-02-03T13:56:22;8.30;29.70
10873;DHT22;34586;53.616;10.032;2023-02-03T14:01:40;8.20;47.80
10873;DHT22;34586;53.616;10.032;2023-02-03T14:07:00;8.20;23.50
10873;DHT22;34586;53.616;10.032;2023-02-03T14:12:18;8.20;99.90
10873;DHT22;34586;53.616;10.032;2023-02-03T14:14:55;8.10;94.30
10873;DHT22;34586;53.616;10.032;2023-02-03T14:17:52;8.10;99.90
10873;DHT22;34586;53.616;10.032;2023-02-03T14:25:48;8.10;99.90
10873;DHT22;34586;53.616;10.032;2023-02-03T14:28:19;8.20;99.90
10873;DHT22;34586;53.616;10.032;2023-02-03T14:31:17;8.00;99.90
10873;DHT22;34586;53.616;10.032;2023-02-03T14:33:50;8.10;99.90
10873;DHT22;34586;53.616;10.032;2023-02-03T14:36:29;8.00;99.90
10873;DHT22;34586;53.616;10.032;2023-02-03T14:38:58;8.00;1.00
10873;DHT22;34586;53.616;10.032;2023-02-03T14:44:47;7.90;1.00
10873;DHT22;34586;53.616;10.032;2023-02-03T14:50:18;7.90;1.00
10873;DHT22;34586;53.616;10.032;2023-02-03T14:53:21;8.00;1.00
10873;DHT22;34586;53.616;10.032;2023-02-03T14:55:51;7.90;1.00
10873;DHT22;34586;53.616;10.032;2023-02-03T14:58:51;7.90;1.00
10873;DHT22;34586;53.616;10.032;2023-02-03T15:02:09;7.90;1.00
10873;DHT22;34586;53.616;10.032;2023-02-03T15:04:19;7.90;1.00
10873;DHT22;34586;53.616;10.032;2023-02-03T15:06:47;7.80;1.00
10873;DHT22;34586;53.616;10.032;2023-02-03T15:09:32;7.90;1.00
10873;DHT22;34586;53.616;10.032;2023-02-03T15:12:00;7.80;1.00
10873;DHT22;34586;53.616;10.032;2023-02-03T15:14:29;7.90;1.00
10873;DHT22;34586;53.616;10.032;2023-02-03T15:17:09;7.90;1.00
10873;DHT22;34586;53.616;10.032;2023-02-03T15:19:39;7.90;1.00
10873;DHT22;34586;53.616;10.032;2023-02-03T15:22:28;7.80;1.00
10873;DHT22;34586;53.616;10.032;2023-02-03T15:24:59;7.80;1.00
10873;DHT22;34586;53.616;10.032;2023-02-03T15:27:29;7.80;1.00
10873;DHT22;34586;53.616;10.032;2023-02-03T15:30:13;8.00;1.00
10873;DHT22;34586;53.616;10.032;2023-02-03T15:32:41;7.80;1.00
10873;DHT22;34586;53.616;10.032;2023-02-03T15:35:14;7.80;1.00
10873;DHT22;34586;53.616;10.032;2023-02-03T15:37:45;7.70;1.00
10873;DHT22;34586;53.616;10.032;2023-02-03T15:40:19;7.80;1.00
10873;DHT22;34586;53.616;10.032;2023-02-03T15:42:58;7.70;1.00
10873;DHT22;34586;53.616;10.032;2023-02-03T15:45:34;7.70;1.00
10873;DHT22;34586;53.616;10.032;2023-02-03T15:51:33;7.70;1.00
10873;DHT22;34586;53.616;10.032;2023-02-03T15:57:01;7.70;1.00
10873;DHT22;34586;53.616;10.032;2023-02-03T15:59:36;7.80;1.00
10873;DHT22;34586;53.616;10.032;2023-02-03T16:02:32;7.70;1.00
10873;DHT22;34586;53.616;10.032;2023-02-03T16:05:03;7.70;1.00
10873;DHT22;34586;53.616;10.032;2023-02-03T16:07:29;7.80;1.00
10873;DHT22;34586;53.616;10.032;2023-02-03T16:09:57;7.70;1.00
10873;DHT22;34586;53.616;10.032;2023-02-03T16:12:27;7.70;1.00
10873;DHT22;34586;53.616;10.032;2023-02-03T16:14:55;7.70;1.00
10873;DHT22;34586;53.616;10.032;2023-02-03T16:20:18;7.70;1.00
10873;DHT22;34586;53.616;10.032;2023-02-03T16:22:55;7.70;1.00
10873;DHT22;34586;53.616;10.032;2023-02-03T16:25:27;7.60;1.00
10873;DHT22;34586;53.616;10.032;2023-02-03T16:28:03;7.60;1.00
10873;DHT22;34586;53.616;10.032;2023-02-03T16:31:10;7.50;2.90
10873;DHT22;34586;53.616;10.032;2023-02-03T16:33:56;7.50;36.40
10873;DHT22;34586;53.616;10.032;2023-02-03T16:36:42;7.50;93.40
10873;DHT22;34586;53.616;10.032;2023-02-03T16:39:26;7.50;99.90
10873;DHT22;34586;53.616;10.032;2023-02-03T16:42:18;7.30;99.90
10873;DHT22;34586;53.616;10.032;2023-02-03T16:45:16;7.20;99.90
10873;DHT22;34586;53.616;10.032;2023-02-03T16:48:01;7.20;99.90
10873;DHT22;34586;53.616;10.032;2023-02-03T16:50:46;7.20;99.90
10873;DHT22;34586;53.616;10.032;2023-02-03T16:53:38;7.10;99.90
10873;DHT22;34586;53.616;10.032;2023-02-03T16:56:05;7.10;99.90
10873;DHT22;34586;53.616;10.032;2023-02-03T16:58:31;7.10;99.90
10873;DHT22;34586;53.616;10.032;2023-02-03T17:00:59;7.10;99.90
10873;DHT22;34586;53.616;10.032;2023-02-03T17:03:26;6.90;99.90
10873;DHT22;34586;53.616;10.032;2023-02-03T17:05:53;7.10;99.90
10873;DHT22;34586;53.616;10.032;2023-02-03T17:08:22;6.90;99.90
10873;DHT22;34586;53.616;10.032;2023-02-03T17:10:48;6.90;99.90
10873;DHT22;34586;53.616;10.032;2023-02-03T17:13:14;6.90;99.90
10873;DHT22;34586;53.616;10.032;2023-02-03T17:15:43;6.90;99.90
10873;DHT22;34586;53.616;10.032;2023-02-03T17:18:09;6.80;99.90
10873;DHT22;34586;53.616;10.032;2023-02-03T17:20:35;6.80;99.90
10873;DHT22;34586;53.616;10.032;2023-02-03T17:23:02;6.70;99.90
10873;DHT22;34586;53.616;10.032;2023-02-03T17:25:28;6.80;99.90
10873;DHT22;34586;53.616;10.032;2023-02-03T17:27:56;6.60;99.90
10873;DHT22;34586;53.616;10.032;2023-02-03T17:30:21;6.70;99.90
10873;DHT22;34586;53.616;10.032;2023-02-03T17:32:47;6.90;99.90
10873;DHT22;34586;53.616;10.032;2023-02-03T17:35:13;6.70;99.90
10873;DHT22;34586;53.616;10.032;2023-02-03T17:37:38;6.70;99.90
10873;DHT22;34586;53.616;10.032;2023-02-03T17:40:06;6.60;99.90
10873;DHT22;34586;53.616;10.032;2023-02-03T17:42:31;6.60;99.90
10873;DHT22;34586;53.616;10.032;2023-02-03T17:44:57;6.60;99.90
10873;DHT22;34586;53.616;10.032;2023-02-03T17:47:22;6.50;99.90
10873;DHT22;34586;53.616;10.032;2023-02-03T17:49:48;6.50;99.90
10873;DHT22;34586;53.616;10.032;2023-02-03T17:52:14;6.50;99.90
10873;DHT22;34586;53.616;10.032;2023-02-03T17:54:41;6.50;99.90
10873;DHT22;34586;53.616;10.032;2023-02-03T17:57:08;6.50;99.90
10873;DHT22;34586;53.616;10.032;2023-02-03T17:59:33;6.60;99.90
10873;DHT22;34586;53.616;10.032;2023-02-03T18:02:02;6.60;99.90
10873;DHT22;34586;53.616;10.032;2023-02-03T18:04:28;6.50;99.90